Time;durP1;ratioP1;P1;durP2;ratioP2;P2;SDS_P1;SDS_P2;PMS_P1;PMS_P2;Temp;Humidity;BMP_temperature;BMP_pressure;BME280_temperature;BME280_humidity;BME280_pressure;Samples;Min_cycle;Max_cycle;Signal;HPM_P1;HPM_P2
2022/04/10 00:01:52;;;;;;;10.02;3.28;;;;;;;1.62;88.85;102048.41;5078136;28;20079;-75
2022/04/10 00:04:20;;;;;;;7.35;3.05;;;;;;;1.61;90.28;102037.16;5079295;28;20082;-75
2022/04/10 00:06:56;;;;;;;10.05;3.55;;;;;;;1.58;89.88;102043.81;5080004;28;20091;-75
2022/04/10 00:09:24;;;;;;;8.55;3.42;;;;;;;1.57;90.64;102042.91;5081425;28;20049;-75
2022/04/10 00:11:53;;;;;;;5.75;3.22;;;;;;;1.56;91.24;102050.56;5080468;28;20079;-75
2022/04/10 00:14:21;;;;;;;9.65;3.70;;;;;;;1.51;90.41;102047.66;5080979;28;20072;-75
2022/04/10 00:16:52;;;;;;;12.30;4.93;;;;;;;1.52;91.30;102046.88;5079537;28;20087;-73
2022/04/10 00:19:20;;;;;;;9.00;4.82;;;;;;;1.50;90.62;102038.13;5080090;28;20079;-74
2022/04/10 00:21:53;;;;;;;9.07;4.45;;;;;;;1.50;91.91;102039.81;5078900;28;20115;-74
2022/04/10 00:24:25;;;;;;;17.92;6.00;;;;;;;1.53;92.59;102037.44;5077902;28;20113;-74
2022/04/10 00:26:53;;;;;;;11.57;4.70;;;;;;;1.57;92.62;102034.25;5075227;28;20052;-75
2022/04/10 00:29:22;;;;;;;14.23;4.90;;;;;;;1.55;91.57;102031.56;5074391;28;20052;-74
2022/04/10 00:31:53;;;;;;;11.13;4.88;;;;;;;1.54;91.66;102037.53;5074352;28;20068;-73
2022/04/10 00:34:21;;;;;;;12.10;4.55;;;;;;;1.49;91.46;102031.16;5076619;28;20159;-74
2022/04/10 00:36:52;;;;;;;12.02;4.35;;;;;;;1.48;92.85;102034.53;5077597;28;20040;-73
2022/04/10 00:39:22;;;;;;;13.90;4.85;;;;;;;1.48;93.17;102029.34;5077228;28;20049;-76
2022/04/10 00:41:51;;;;;;;11.63;4.93;;;;;;;1.50;92.83;102026.88;5077682;28;20072;-73
2022/04/10 00:44:22;;;;;;;10.50;4.82;;;;;;;1.39;92.08;102028.72;5078118;28;20048;-73
2022/04/10 00:46:51;;;;;;;9.70;4.25;;;;;;;1.33;91.94;102025.72;5077413;28;20044;-74
2022/04/10 00:49:22;;;;;;;9.80;4.50;;;;;;;1.28;92.35;102034.84;5077462;28;20056;-74
2022/04/10 00:51:54;;;;;;;12.32;5.00;;;;;;;1.24;92.62;102032.84;5077480;28;20056;-74
2022/04/10 00:54:25;;;;;;;9.38;4.32;;;;;;;1.26;93.99;102032.16;5077006;28;20106;-74
2022/04/10 00:57:00;;;;;;;10.13;4.22;;;;;;;1.23;93.20;102028.47;5077252;28;20052;-74
2022/04/10 00:59:29;;;;;;;12.77;4.97;;;;;;;1.22;93.64;102027.56;5077217;28;20071;-75
2022/04/10 01:01:57;;;;;;;11.73;4.50;;;;;;;1.22;94.16;102021.50;5077258;28;20044;-75
2022/04/10 01:04:41;;;;;;;12.35;4.38;;;;;;;1.18;93.90;102027.25;5077178;28;20076;-75
2022/04/10 01:07:11;;;;;;;8.05;4.07;;;;;;;1.16;93.65;102024.53;5077192;28;20048;-76
2022/04/10 01:09:42;;;;;;;12.52;4.75;;;;;;;1.12;93.56;102029.41;5076807;28;20055;-76
2022/04/10 01:12:11;;;;;;;17.52;4.30;;;;;;;1.11;94.31;102031.09;5076601;28;20100;-74
2022/04/10 01:14:41;;;;;;;12.93;4.22;;;;;;;1.09;93.97;102029.19;5077495;28;20048;-74
2022/04/10 01:17:09;;;;;;;11.75;4.05;;;;;;;1.07;94.11;102041.09;5077221;28;20041;-74
2022/04/10 01:19:39;;;;;;;9.20;4.10;;;;;;;1.04;94.38;102040.91;5076606;28;20067;-74
2022/04/10 01:22:08;;;;;;;10.30;3.75;;;;;;;1.03;95.08;102042.59;5077020;28;20080;-74
2022/04/10 01:24:40;;;;;;;12.88;4.28;;;;;;;0.98;95.20;102043.97;5076446;28;20421;-74
2022/04/10 01:27:08;;;;;;;14.13;4.00;;;;;;;0.97;94.49;102045.66;5075977;28;20510;-74
2022/04/10 01:29:36;;;;;;;5.65;3.00;;;;;;;0.96;94.56;102041.25;5076506;28;20094;-75
2022/04/10 01:32:05;;;;;;;11.13;4.13;;;;;;;0.93;94.38;102038.47;5076073;28;20103;-74
2022/04/10 01:34:34;;;;;;;7.85;3.60;;;;;;;0.88;94.34;102047.56;5076567;28;20094;-75
2022/04/10 01:37:05;;;;;;;14.52;4.10;;;;;;;0.88;95.45;102052.75;5076556;28;20579;-76
2022/04/10 01:39:34;;;;;;;8.45;3.35;;;;;;;0.85;95.46;102052.53;5076220;28;20056;-76
2022/04/10 01:42:07;;;;;;;11.13;4.32;;;;;;;0.79;94.73;102052.09;5076114;28;20044;-76
2022/04/10 01:44:41;;;;;;;9.57;3.67;;;;;;;0.76;94.77;102051.88;5075830;28;20052;-76
2022/04/10 01:47:10;;;;;;;10.13;3.55;;;;;;;0.75;95.17;102052.66;5076288;28;20130;-76
2022/04/10 01:49:38;;;;;;;9.70;3.75;;;;;;;0.72;95.16;102056.69;5076135;28;20139;-78
2022/04/10 01:52:07;;;;;;;12.02;3.83;;;;;;;0.69;95.10;102052.22;5075752;28;20080;-77
2022/04/10 01:54:35;;;;;;;8.45;3.60;;;;;;;0.71;95.83;102058.38;5075900;28;20514;-75
2022/04/10 01:57:06;;;;;;;10.43;3.60;;;;;;;0.68;95.56;102062.44;5075582;28;20461;-75
2022/04/10 01:59:34;;;;;;;8.82;4.15;;;;;;;0.62;95.62;102057.72;5075575;28;20048;-75
2022/04/10 02:02:02;;;;;;;6.97;3.35;;;;;;;0.60;95.48;102067.03;5075701;28;20063;-75
2022/04/10 02:04:33;;;;;;;6.45;3.33;;;;;;;0.61;96.10;102063.66;5075687;28;20059;-75
2022/04/10 02:07:02;;;;;;;10.48;3.60;;;;;;;0.56;95.63;102062.44;5075539;28;20091;-74
2022/04/10 02:09:30;;;;;;;15.02;4.18;;;;;;;0.54;95.72;102070.06;5075369;28;20044;-76
2022/04/10 02:11:58;;;;;;;9.15;4.10;;;;;;;0.52;95.96;102060.41;5075776;28;20459;-75
2022/04/10 02:14:30;;;;;;;8.45;3.60;;;;;;;0.46;95.28;102068.59;5075868;28;20044;-75
2022/04/10 02:16:58;;;;;;;8.45;3.28;;;;;;;0.54;96.66;102064.91;5075732;28;20395;-75
2022/04/10 02:19:27;;;;;;;10.35;4.03;;;;;;;0.50;95.68;102064.56;5075680;28;20054;-75
2022/04/10 02:21:57;;;;;;;9.15;3.40;;;;;;;0.47;96.05;102067.81;5075929;28;20048;-76
2022/04/10 02:24:25;;;;;;;8.45;3.90;;;;;;;0.44;95.68;102066.69;5075773;28;20102;-75
2022/04/10 02:26:52;;;;;;;6.32;3.38;;;;;;;0.53;97.43;102064.78;5075332;28;20538;-75
2022/04/10 02:29:22;;;;;;;9.05;3.30;;;;;;;0.48;96.00;102074.78;5075483;28;20044;-75
2022/04/10 02:31:54;;;;;;;12.00;3.97;;;;;;;0.47;96.84;102072.09;5075167;28;20051;-74
2022/04/10 02:34:24;;;;;;;11.13;3.78;;;;;;;0.49;96.97;102071.41;5075767;28;20044;-74
2022/04/10 02:36:52;;;;;;;7.10;3.42;;;;;;;0.50;96.73;102068.03;5075291;28;20461;-74
2022/04/10 02:39:20;;;;;;;11.77;3.70;;;;;;;0.49;96.91;102067.94;5075828;28;20041;-74
2022/04/10 02:41:51;;;;;;;8.98;3.58;;;;;;;0.45;96.84;102066.81;5075138;28;20518;-74
2022/04/10 02:44:20;;;;;;;6.63;3.42;;;;;;;0.54;97.17;102070.06;5075855;28;20048;-76
2022/04/10 02:46:55;;;;;;;10.02;3.30;;;;;;;0.52;96.63;102071.63;5075256;28;20045;-76
2022/04/10 02:49:23;;;;;;;8.02;3.20;;;;;;;0.53;97.02;102068.28;5075857;28;20044;-76
2022/04/10 02:51:52;;;;;;;8.93;3.40;;;;;;;0.56;97.11;102067.59;5074947;28;20048;-75
2022/04/10 02:54:20;;;;;;;8.73;3.95;;;;;;;0.58;97.09;102071.19;5075358;28;20040;-75
2022/04/10 02:56:52;;;;;;;10.35;4.07;;;;;;;0.58;97.06;102066.03;5074181;28;20044;-75
2022/04/10 02:59:23;;;;;;;12.40;4.00;;;;;;;0.60;97.37;102074.78;5075842;28;20406;-76
2022/04/10 03:01:55;;;;;;;10.38;3.67;;;;;;;0.61;97.35;102071.41;5075559;28;20079;-76
2022/04/10 03:04:23;;;;;;;8.60;3.53;;;;;;;0.61;97.36;102067.16;5076107;28;20127;-76
2022/04/10 03:06:55;;;;;;;8.88;3.45;;;;;;;0.64;97.41;102072.53;5075206;28;20297;-76
2022/04/10 03:09:23;;;;;;;14.55;4.07;;;;;;;0.62;97.07;102083.53;5075809;28;20075;-75
2022/04/10 03:11:54;;;;;;;10.38;3.85;;;;;;;0.62;97.44;102080.94;5075720;28;20100;-75
2022/04/10 03:14:22;;;;;;;13.57;3.53;;;;;;;0.64;97.88;102079.38;5076157;28;20044;-75
2022/04/10 03:16:56;;;;;;;14.30;4.85;;;;;;;0.62;97.73;102080.94;5076330;28;20056;-74
2022/04/10 03:19:24;;;;;;;17.88;4.63;;;;;;;0.64;97.93;102084.53;5076280;28;20465;-74
2022/04/10 03:21:52;;;;;;;9.40;3.42;;;;;;;0.64;97.33;102087.13;5078588;28;20040;-74
2022/04/10 03:24:23;;;;;;;7.22;3.28;;;;;;;0.60;96.90;102090.28;5080780;28;20194;-76
2022/04/10 03:26:54;;;;;;;7.38;3.78;;;;;;;0.61;96.85;102092.06;5082156;28;20080;-76
2022/04/10 03:29:22;;;;;;;9.68;3.60;;;;;;;0.61;96.88;102092.06;5079800;28;20056;-76
2022/04/10 03:31:51;;;;;;;7.72;3.00;;;;;;;0.55;96.52;102092.50;5080492;28;20064;-76
2022/04/10 03:34:24;;;;;;;10.52;3.78;;;;;;;0.53;96.94;102093.19;5079381;28;20068;-77
2022/04/10 03:36:52;;;;;;;6.43;3.00;;;;;;;0.56;97.32;102098.56;5079574;28;20044;-76
2022/04/10 03:39:21;;;;;;;7.82;3.22;;;;;;;0.59;97.42;102098.81;5079514;28;20071;-75
2022/04/10 03:41:52;;;;;;;8.70;3.47;;;;;;;0.55;97.18;102096.78;5077964;28;20068;-76
2022/04/10 03:44:23;;;;;;;8.93;3.85;;;;;;;0.51;97.15;102100.81;5075757;28;20391;-75
2022/04/10 03:46:52;;;;;;;9.85;3.60;;;;;;;0.44;96.95;102097.66;5074385;28;20052;-77
2022/04/10 03:49:20;;;;;;;11.93;3.80;;;;;;;0.41;97.39;102103.50;5074431;28;20051;-74
2022/04/10 03:51:55;;;;;;;7.28;3.05;;;;;;;0.38;97.47;102099.81;5074162;28;20045;-74
2022/04/10 03:54:24;;;;;;;5.75;3.00;;;;;;;0.35;97.34;102102.16;5074408;28;20059;-73
2022/04/10 03:56:52;;;;;;;11.88;3.33;;;;;;;0.32;97.83;102101.16;5073738;28;20127;-75
2022/04/10 03:59:21;;;;;;;9.68;3.80;;;;;;;0.28;97.38;102104.28;5074239;28;20098;-75
2022/04/10 04:01:52;;;;;;;9.35;3.47;;;;;;;0.29;98.12;102111.25;5073815;28;20044;-75
2022/04/10 04:04:23;;;;;;;7.60;3.28;;;;;;;0.24;97.33;102120.31;5074106;28;20094;-75
2022/04/10 04:06:55;;;;;;;8.13;3.95;;;;;;;0.24;97.59;102116.84;5074173;28;20080;-74
2022/04/10 04:09:23;;;;;;;10.93;3.17;;;;;;;0.22;98.05;102120.97;5076767;28;20041;-76
2022/04/10 04:11:52;;;;;;;8.88;3.50;;;;;;;0.17;98.31;102120.63;5077842;28;20049;-76
2022/04/10 04:14:21;;;;;;;7.70;3.67;;;;;;;0.20;98.96;102118.28;5078286;28;20071;-73
2022/04/10 04:16:50;;;;;;;9.88;4.57;;;;;;;0.22;99.20;102115.81;5077559;28;20056;-75
2022/04/10 04:19:22;;;;;;;8.85;4.03;;;;;;;0.16;98.43;102121.41;5077597;28;20048;-75
2022/04/10 04:21:52;;;;;;;11.68;4.75;;;;;;;0.14;99.01;102120.41;5077483;28;20059;-75
2022/04/10 04:24:24;;;;;;;12.52;4.35;;;;;;;0.12;99.21;102121.97;5077927;28;20067;-76
2022/04/10 04:26:52;;;;;;;9.70;4.03;;;;;;;0.11;100.00;102119.28;5077843;28;20079;-74
2022/04/10 04:29:20;;;;;;;10.05;4.50;;;;;;;0.06;99.27;102129.25;5077392;28;20064;-76
2022/04/10 04:31:52;;;;;;;10.75;4.03;;;;;;;0.06;99.24;102129.25;5077140;28;20060;-75
2022/04/10 04:34:21;;;;;;;13.98;5.15;;;;;;;0.02;98.86;102129.78;5077980;28;20135;-75
2022/04/10 04:36:50;;;;;;;8.95;4.47;;;;;;;0.02;99.62;102132.38;5077298;28;20048;-75
2022/04/10 04:39:21;;;;;;;15.27;5.65;;;;;;;0.02;100.00;102134.97;5077808;28;20048;-75
2022/04/10 04:41:53;;;;;;;12.82;4.82;;;;;;;0.00;99.77;102139.13;5077417;28;20384;-75
2022/04/10 04:44:21;;;;;;;9.93;4.80;;;;;;;0.03;100.00;102141.91;5077295;28;20040;-77
2022/04/10 04:46:52;;;;;;;14.35;4.60;;;;;;;-0.02;100.00;102144.19;5077665;28;20076;-75
2022/04/10 04:49:20;;;;;;;11.75;5.03;;;;;;;-0.02;100.00;102151.91;5078224;28;20076;-77
2022/04/10 04:51:52;;;;;;;9.52;4.85;;;;;;;-0.07;100.00;102152.34;5078015;28;20075;-75
2022/04/10 04:54:23;;;;;;;13.27;4.43;;;;;;;-0.06;100.00;102154.13;5077232;28;20066;-75
2022/04/10 04:56:53;;;;;;;10.55;3.80;;;;;;;-0.06;100.00;102159.28;5077556;28;20078;-75
2022/04/10 04:59:23;;;;;;;11.30;4.82;;;;;;;-0.06;100.00;102154.13;5077147;28;20082;-75
2022/04/10 05:01:55;;;;;;;14.20;4.45;;;;;;;0.01;100.00;102161.53;5077126;28;20051;-75
2022/04/10 05:04:24;;;;;;;14.07;4.78;;;;;;;0.11;100.00;102147.66;5077237;28;20110;-75
2022/04/10 05:06:52;;;;;;;16.92;5.65;;;;;;;0.05;100.00;102162.66;5077341;28;20109;-74
2022/04/10 05:09:20;;;;;;;10.93;4.72;;;;;;;0.07;100.00;102167.16;5077208;28;20045;-74
2022/04/10 05:11:53;;;;;;;9.57;4.03;;;;;;;0.07;100.00;102163.69;5076628;28;20048;-74
2022/04/10 05:14:21;;;;;;;10.00;4.45;;;;;;;0.04;100.00;102160.88;5077360;28;20132;-74
2022/04/10 05:16:51;;;;;;;10.68;4.53;;;;;;;0.03;100.00;102169.38;5076943;28;20048;-74
2022/04/10 05:19:23;;;;;;;13.23;4.88;;;;;;;0.04;100.00;102174.66;5076987;28;20482;-76
2022/04/10 05:21:52;;;;;;;12.45;4.53;;;;;;;0.12;100.00;102176.16;5076513;28;20052;-76
2022/04/10 05:24:20;;;;;;;16.85;6.40;;;;;;;0.15;100.00;102181.53;5077107;28;20070;-74
2022/04/10 05:26:56;;;;;;;13.73;5.75;;;;;;;0.15;100.00;102176.38;5076277;28;20055;-74
2022/04/10 05:29:24;;;;;;;10.65;4.63;;;;;;;0.17;100.00;102179.97;5076543;28;20044;-75
2022/04/10 05:31:52;;;;;;;9.43;4.75;;;;;;;0.18;100.00;102181.78;5076769;28;20068;-75
2022/04/10 05:34:20;;;;;;;13.68;4.68;;;;;;;0.27;100.00;102182.47;5076892;28;20127;-75
2022/04/10 05:36:50;;;;;;;11.68;5.53;;;;;;;0.42;100.00;102187.00;5076566;28;20056;-74
2022/04/10 05:39:21;;;;;;;14.00;6.07;;;;;;;0.61;100.00;102190.16;5076377;28;20409;-77
2022/04/10 05:41:51;;;;;;;19.38;7.78;;;;;;;0.78;100.00;102194.91;5076843;28;20127;-76
2022/04/10 05:44:21;;;;;;;11.38;5.53;;;;;;;0.96;100.00;102192.78;5077076;28;20060;-77
2022/04/10 05:46:50;;;;;;;13.30;5.93;;;;;;;1.14;100.00;102188.00;5076783;28;20099;-76
2022/04/10 05:49:21;;;;;;;15.77;6.30;;;;;;;1.28;100.00;102189.91;5076741;28;20131;-74
2022/04/10 05:51:52;;;;;;;16.88;6.22;;;;;;;1.42;100.00;102199.56;5077032;28;20044;-76
2022/04/10 05:54:20;;;;;;;15.68;5.85;;;;;;;1.61;100.00;102197.47;5076711;28;20099;-76
2022/04/10 05:56:55;;;;;;;13.25;5.40;;;;;;;1.86;100.00;102196.63;5076892;28;20076;-76
2022/04/10 05:59:24;;;;;;;11.60;5.28;;;;;;;2.05;99.79;102202.28;5076917;28;20063;-76
2022/04/10 06:01:54;;;;;;;13.80;5.25;;;;;;;2.28;99.43;102198.66;5076671;28;20067;-75
2022/04/10 06:04:22;;;;;;;15.80;5.57;;;;;;;2.49;99.09;102194.91;5077051;28;20052;-75
2022/04/10 06:06:52;;;;;;;20.67;9.07;;;;;;;2.72;98.49;102204.22;5075840;28;20128;-75
2022/04/10 06:09:20;;;;;;;19.40;8.15;;;;;;;2.92;98.05;102206.44;5076417;28;20044;-75
2022/04/10 06:11:54;;;;;;;17.83;7.18;;;;;;;3.15;97.61;102212.19;5076473;28;20056;-77
2022/04/10 06:14:24;;;;;;;14.13;6.07;;;;;;;3.38;96.52;102214.56;5076912;28;20083;-75
2022/04/10 06:16:52;;;;;;;16.40;6.05;;;;;;;3.60;96.46;102216.84;5076762;28;20072;-75
2022/04/10 06:19:21;;;;;;;14.77;5.80;;;;;;;3.83;95.79;102216.59;5076924;28;20049;-76
2022/04/10 06:21:52;;;;;;;13.45;5.53;;;;;;;4.07;95.05;102217.19;5076624;28;20037;-75
2022/04/10 06:24:21;;;;;;;11.43;4.85;;;;;;;4.29;94.52;102214.19;5076587;28;20049;-76
2022/04/10 06:26:52;;;;;;;13.70;4.50;;;;;;;4.47;90.76;102215.28;5076625;28;20131;-76
2022/04/10 06:29:21;;;;;;;11.43;3.88;;;;;;;4.73;92.55;102214.22;5077087;28;20048;-73
2022/04/10 06:31:53;;;;;;;14.77;4.68;;;;;;;4.99;91.80;102218.34;5076729;28;20437;-75
2022/04/10 06:34:22;;;;;;;11.23;4.55;;;;;;;5.23;90.86;102218.81;5077774;28;20056;-75
2022/04/10 06:36:51;;;;;;;9.15;4.00;;;;;;;5.43;90.48;102219.94;5078542;28;20049;-76
2022/04/10 06:39:21;;;;;;;11.65;4.20;;;;;;;5.69;88.55;102221.38;5077855;28;20045;-75
2022/04/10 06:41:50;;;;;;;12.40;4.85;;;;;;;5.91;89.13;102219.16;5078907;28;20088;-76
2022/04/10 06:44:21;;;;;;;11.05;4.35;;;;;;;6.12;87.95;102214.22;5080568;28;20123;-76
2022/04/10 06:46:52;;;;;;;9.85;4.45;;;;;;;6.35;86.98;102228.41;5080901;28;20056;-76
2022/04/10 06:49:22;;;;;;;11.25;3.80;;;;;;;6.33;86.24;102227.44;5082257;28;20103;-74
2022/04/10 06:51:55;;;;;;;10.60;4.38;;;;;;;6.10;81.40;102232.38;5081417;28;20075;-75
2022/04/10 06:54:23;;;;;;;8.30;3.67;;;;;;;6.10;80.90;102231.47;5079914;28;20062;-76
2022/04/10 06:56:51;;;;;;;7.50;3.00;;;;;;;6.49;83.12;102230.03;5080423;28;20049;-75
2022/04/10 06:59:20;;;;;;;7.72;3.13;;;;;;;6.79;83.27;102238.53;5079392;28;20554;-77
2022/04/10 07:01:52;;;;;;;8.52;2.72;;;;;;;7.12;78.22;102241.94;5079577;28;20048;-76
2022/04/10 07:04:22;;;;;;;7.78;2.80;;;;;;;7.12;72.96;102229.78;5077666;28;20136;-76
2022/04/10 07:06:55;;;;;;;6.88;2.33;;;;;;;7.55;75.89;102240.56;5075120;28;20052;-75
2022/04/10 07:09:24;;;;;;;5.85;2.67;;;;;;;7.71;71.05;102236.97;5074239;28;20463;-75
2022/04/10 07:11:58;;;;;;;7.88;2.47;;;;;;;7.69;69.44;102240.31;5074499;28;20078;-76
2022/04/10 07:14:27;;;;;;;11.40;9.20;;;;;;;7.97;69.71;102238.16;5074858;28;20047;-77
2022/04/10 07:16:57;;;;;;;12.23;3.35;;;;;;;8.24;68.06;102251.59;5075429;28;20104;-77
2022/04/10 07:19:27;;;;;;;14.45;2.70;;;;;;;8.22;72.39;102244.53;5076215;28;20048;-76
2022/04/10 07:24:40;;;;;;;6.20;2.05;;;;;;;8.30;72.94;102251.88;5074774;28;20048;-78
2022/04/10 07:27:08;;;;;;;8.90;2.45;;;;;;;8.01;72.87;102262.72;5074812;28;20056;-76
2022/04/10 07:29:36;;;;;;;12.57;2.30;;;;;;;8.04;73.59;102258.53;5074715;28;20098;-77
2022/04/10 07:32:05;;;;;;;10.20;2.88;;;;;;;8.20;72.96;102267.97;5073781;28;20059;-77
2022/04/10 07:34:35;;;;;;;10.25;2.03;;;;;;;8.57;73.10;102264.38;5074716;28;20127;-75
2022/04/10 07:37:04;;;;;;;6.93;2.35;;;;;;;8.66;72.04;102264.78;5074598;28;20052;-77
2022/04/10 07:39:32;;;;;;;10.18;2.45;;;;;;;8.97;71.25;102264.38;5074911;28;20048;-76
2022/04/10 07:42:00;;;;;;;9.43;2.60;;;;;;;9.25;70.45;102262.09;5074792;28;20044;-75
2022/04/10 07:44:54;;;;;;;7.32;2.55;;;;;;;9.47;70.06;102271.69;5080761;28;20052;-76
2022/04/10 07:47:25;;;;;;;5.55;2.22;;;;;;;9.48;68.39;102274.38;5081373;28;20045;-77
2022/04/10 07:49:54;;;;;;;4.20;2.00;;;;;;;9.85;66.14;102273.22;5080886;28;20040;-77
2022/04/10 07:52:29;;;;;;;9.75;2.55;;;;;;;9.97;64.22;102273.69;5081320;28;20056;-76
2022/04/10 07:54:57;;;;;;;6.75;2.47;;;;;;;10.08;62.37;102281.97;5081316;28;20052;-76
2022/04/10 07:57:25;;;;;;;10.57;2.38;;;;;;;9.63;60.83;102283.69;5081834;28;20044;-77
2022/04/10 07:59:53;;;;;;;5.63;1.85;;;;;;;9.48;57.26;102279.59;5081441;28;20058;-76
2022/04/10 08:02:21;;;;;;;7.93;2.38;;;;;;;9.75;56.59;102284.16;5081372;28;20048;-76
2022/04/10 08:04:52;;;;;;;5.20;1.40;;;;;;;9.58;52.58;102283.50;5080775;28;20088;-78
2022/04/10 08:07:22;;;;;;;3.65;1.55;;;;;;;9.16;54.45;102290.50;5081135;28;20083;-78
2022/04/10 08:09:53;;;;;;;3.13;1.70;;;;;;;8.71;53.49;102299.88;5080250;28;20083;-75
2022/04/10 08:12:20;;;;;;;3.95;1.60;;;;;;;8.27;53.65;102301.41;5081581;28;20048;-77
2022/04/10 08:14:52;;;;;;;4.72;2.28;;;;;;;8.56;53.41;102304.44;5081427;28;20098;-75
2022/04/10 08:17:20;;;;;;;3.08;1.67;;;;;;;8.53;53.57;102305.19;5080895;28;20052;-77
2022/04/10 08:19:52;;;;;;;5.85;1.90;;;;;;;8.32;53.71;102307.69;5080628;28;20068;-76
2022/04/10 08:22:25;;;;;;;4.35;1.95;;;;;;;8.64;51.29;102303.06;5081212;28;20045;-76
2022/04/10 08:24:54;;;;;;;6.30;1.65;;;;;;;8.87;51.21;102307.59;5081208;28;20048;-77
2022/04/10 08:27:22;;;;;;;7.75;2.45;;;;;;;9.34;50.93;102301.75;5080883;28;20131;-76
2022/04/10 08:29:54;;;;;;;3.17;1.75;;;;;;;9.00;51.28;102309.00;5081024;28;20063;-77
2022/04/10 08:32:22;;;;;;;5.00;1.90;;;;;;;9.01;50.36;102316.03;5080491;28;20044;-77
2022/04/10 08:34:52;;;;;;;7.43;2.25;;;;;;;9.27;52.91;102315.41;5080425;28;20053;-77
2022/04/10 08:37:21;;;;;;;4.55;1.92;;;;;;;9.57;52.44;102310.53;5080491;28;20048;-76
2022/04/10 08:39:53;;;;;;;4.95;1.75;;;;;;;8.95;52.88;102313.16;5080487;28;20488;-76
2022/04/10 08:42:21;;;;;;;4.93;1.85;;;;;;;8.76;53.55;102320.19;5080744;28;20476;-76
2022/04/10 08:44:51;;;;;;;3.70;2.10;;;;;;;9.04;50.91;102324.00;5080674;28;20045;-77
2022/04/10 08:47:25;;;;;;;6.85;2.35;;;;;;;9.80;50.52;102320.19;5080790;28;20048;-76
2022/04/10 08:49:54;;;;;;;3.97;1.98;;;;;;;9.92;48.08;102311.94;5080506;28;20040;-75
2022/04/10 08:52:23;;;;;;;5.95;2.03;;;;;;;9.99;48.14;102311.34;5080330;28;20066;-76
2022/04/10 08:54:53;;;;;;;2.50;1.55;;;;;;;9.67;48.54;102311.78;5079372;28;20056;-77
2022/04/10 08:57:24;;;;;;;4.00;1.80;;;;;;;10.42;47.58;102308.63;5077921;28;20095;-76
2022/04/10 08:59:59;;;;;;;4.28;1.42;;;;;;;10.38;47.67;102301.50;5077448;28;20045;-76
2022/04/10 09:02:32;;;;;;;4.78;1.98;;;;;;;10.89;47.44;102300.69;5077307;28;20467;-76
2022/04/10 09:05:00;;;;;;;5.65;2.20;;;;;;;10.48;47.67;102302.72;5077300;28;20049;-76
2022/04/10 09:07:28;;;;;;;3.42;1.60;;;;;;;9.88;47.69;102306.50;5077138;28;20049;-77
2022/04/10 09:10:01;;;;;;;3.85;1.80;;;;;;;9.44;48.49;102316.97;5077206;28;20071;-76
2022/04/10 09:12:30;;;;;;;6.97;2.30;;;;;;;9.52;49.13;102314.69;5077360;28;20493;-78
2022/04/10 09:15:04;;;;;;;6.53;2.17;;;;;;;9.75;48.00;102310.38;5077572;28;20055;-75
2022/04/10 09:17:32;;;;;;;6.70;1.90;;;;;;;9.79;48.62;102315.78;5077316;28;20063;-79
2022/04/10 09:20:01;;;;;;;8.18;2.30;;;;;;;9.98;47.69;102300.78;5077505;28;20058;-78
2022/04/10 09:22:33;;;;;;;3.58;2.10;;;;;;;10.98;47.40;102306.25;5078315;28;20056;-81
2022/04/10 09:25:07;;;;;;;5.10;2.03;;;;;;;10.79;46.45;102304.72;5079043;28;20049;-79
2022/04/10 09:27:37;;;;;;;6.88;1.90;;;;;;;10.40;45.96;102314.69;5077927;28;20060;-78
2022/04/10 09:30:07;;;;;;;8.50;2.00;;;;;;;10.55;47.05;102309.97;5077708;28;20056;-79
2022/04/10 09:32:43;;;;;;;5.85;2.25;;;;;;;10.06;47.44;102323.84;5077742;28;20055;-78
2022/04/10 09:35:14;;;;;;;8.38;2.67;;;;;;;10.33;46.99;102315.28;5077800;28;20083;-73
2022/04/10 09:37:50;;;;;;;6.35;1.88;;;;;;;10.98;46.03;102311.50;5076594;28;20087;-76
2022/04/10 09:40:28;;;;;;;4.78;1.50;;;;;;;10.55;44.17;102307.34;5076959;28;20052;-74
2022/04/10 09:43:01;;;;;;;2.55;1.75;;;;;;;11.04;44.54;102309.09;5076551;28;20124;-76
2022/04/10 09:45:35;;;;;;;5.20;2.00;;;;;;;11.81;44.76;102308.16;5076874;28;20066;-74
2022/04/10 09:48:24;;;;;;;5.55;2.05;;;;;;;11.91;45.34;102311.97;5076740;28;20376;-74
2022/04/10 09:50:53;;;;;;;5.97;1.75;;;;;;;11.55;43.40;102314.28;5077120;28;20074;-75
2022/04/10 09:53:22;;;;;;;3.85;1.52;;;;;;;11.01;42.80;102316.88;5078873;28;20037;-79
2022/04/10 09:55:56;;;;;;;3.38;1.85;;;;;;;10.87;43.08;102320.75;5079054;28;20102;-78
2022/04/10 09:58:26;;;;;;;3.03;1.55;;;;;;;11.81;43.76;102315.16;5078228;28;20044;-76
2022/04/10 10:00:59;;;;;;;6.20;2.55;;;;;;;11.96;42.94;102324.44;5078311;28;20040;-77
2022/04/10 10:03:36;;;;;;;3.90;1.63;;;;;;;10.12;44.50;102323.19;5079549;28;20082;-77
2022/04/10 10:06:09;;;;;;;3.83;1.80;;;;;;;10.57;45.28;102318.78;5080832;28;20056;-76
2022/04/10 10:08:39;;;;;;;9.45;2.28;;;;;;;11.22;44.69;102311.47;5081717;28;20414;-77
2022/04/10 10:11:09;;;;;;;4.65;1.85;;;;;;;11.91;44.26;102315.50;5082942;28;20091;-77
2022/04/10 10:13:38;;;;;;;6.15;2.40;;;;;;;11.29;44.54;102316.97;5081100;28;20116;-75
2022/04/10 10:16:08;;;;;;;4.75;2.10;;;;;;;12.31;44.29;102308.81;5080183;28;20048;-75
2022/04/10 10:18:41;;;;;;;3.80;1.85;;;;;;;12.88;44.30;102317.44;5080291;28;20056;-77
2022/04/10 10:21:10;;;;;;;4.55;2.10;;;;;;;11.56;43.17;102314.34;5080065;28;20068;-77
2022/04/10 10:23:44;;;;;;;5.60;2.00;;;;;;;11.63;43.20;102323.31;5081667;28;20070;-76
2022/04/10 10:26:23;;;;;;;;;;;;;;;11.92;42.83;102316.41;5080699;28;20056;-75
2022/04/10 10:29:13;;;;;;;3.72;1.75;;;;;;;12.01;43.09;102309.69;5078638;28;20008;-75
2022/04/10 10:32:05;;;;;;;5.95;2.20;;;;;;;11.48;42.99;102321.06;5074359;28;20048;-77
2022/04/10 10:34:35;;;;;;;6.57;2.50;;;;;;;12.22;43.34;102314.69;5075720;28;20044;-76
2022/04/10 10:37:04;;;;;;;5.53;1.85;;;;;;;12.02;42.87;102316.72;5075537;28;20044;-77
2022/04/10 10:39:44;;;;;;;6.38;2.28;;;;;;;12.09;42.28;102316.06;5075520;28;20051;-76
2022/04/10 10:42:14;;;;;;;6.85;2.17;;;;;;;11.85;41.65;102317.03;5075325;28;20080;-75
2022/04/10 10:44:52;;;;;;;5.50;2.03;;;;;;;12.09;41.15;102315.19;5075212;28;20052;-77
2022/04/10 10:47:23;;;;;;;5.30;1.95;;;;;;;12.57;42.49;102315.69;5075354;28;20117;-79
2022/04/10 10:49:53;;;;;;;7.90;2.30;;;;;;;12.62;39.68;102316.72;5074882;28;20135;-75
2022/04/10 10:52:23;;;;;;;8.95;2.20;;;;;;;12.69;40.24;102318.69;5075008;28;20076;-77
2022/04/10 10:54:54;;;;;;;11.50;2.50;;;;;;;12.16;40.65;102318.88;5074851;28;20053;-76
2022/04/10 10:57:41;;;;;;;5.22;2.00;;;;;;;12.76;41.05;102314.47;5074787;28;20063;-76
2022/04/10 11:00:16;;;;;;;6.57;2.22;;;;;;;13.43;40.58;102313.66;5074871;28;20056;-74
2022/04/10 11:02:52;;;;;;;6.72;2.42;;;;;;;13.31;39.18;102310.72;5074525;28;20127;-77
2022/04/10 11:05:30;;;;;;;7.60;2.20;;;;;;;13.60;37.03;102292.97;5074623;28;20070;-77
2022/04/10 11:07:59;;;;;;;7.63;1.90;;;;;;;13.64;38.49;102297.44;5075314;28;20044;-77
2022/04/10 11:10:29;;;;;;;6.30;2.35;;;;;;;12.56;38.82;102302.50;5074788;28;20047;-77
2022/04/10 11:13:05;;;;;;;8.40;2.38;;;;;;;12.87;39.95;102293.72;5074621;28;20044;-76
2022/04/10 11:15:36;;;;;;;8.00;2.80;;;;;;;12.26;40.68;102300.78;5074710;28;20404;-78
2022/04/10 11:18:33;;;;;;;7.28;2.35;;;;;;;11.47;39.41;102304.41;5073976;28;20098;-76
2022/04/10 11:21:09;;;;;;;4.50;1.88;;;;;;;12.06;41.29;102300.19;5074778;28;20098;-76
2022/04/10 11:23:54;;;;;;;4.25;1.80;;;;;;;12.26;41.49;102298.16;5073675;28;20036;-76
2022/04/10 11:26:22;;;;;;;6.75;2.05;;;;;;;11.46;39.95;102297.38;5074407;28;20062;-75
2022/04/10 11:28:56;;;;;;;6.60;2.47;;;;;;;11.93;40.66;102290.16;5073886;28;20056;-75
2022/04/10 11:31:32;;;;;;;5.95;2.22;;;;;;;12.09;40.79;102287.16;5073646;28;20449;-76
2022/04/10 11:34:09;;;;;;;5.85;1.92;;;;;;;12.09;40.59;102284.50;5074041;28;20123;-76
2022/04/10 11:36:54;;;;;;;7.90;2.20;;;;;;;11.74;40.04;102278.13;5073949;28;20049;-76
2022/04/10 11:39:28;;;;;;;5.43;2.42;;;;;;;12.26;39.42;102263.06;5074146;28;20037;-75
2022/04/10 11:41:59;;;;;;;7.50;2.15;;;;;;;12.91;40.27;102267.50;5074017;28;20048;-74
2022/04/10 11:44:29;;;;;;;6.95;2.10;;;;;;;12.06;39.42;102271.28;5074199;28;20090;-76
2022/04/10 11:46:59;;;;;;;6.00;2.15;;;;;;;12.53;38.71;102262.94;5074385;28;20056;-76